sensor_id;sensor_type;location;lat;lon;timestamp;P1;durP1;ratioP1;P2;durP2;ratioP2
151;SDS011;68;48.792;9.164;2023-08-20T00:00:52;33.23;;;16.50;;
151;SDS011;68;48.792;9.164;2023-08-20T00:03:20;34.60;;;17.13;;
151;SDS011;68;48.792;9.164;2023-08-20T00:05:47;35.70;;;18.10;;
151;SDS011;68;48.792;9.164;2023-08-20T00:08:15;37.27;;;16.27;;
151;SDS011;68;48.792;9.164;2023-08-20T00:10:41;35.50;;;17.70;;
151;SDS011;68;48.792;9.164;2023-08-20T00:13:09;32.27;;;16.50;;
151;SDS011;68;48.792;9.164;2023-08-20T00:15:36;35.70;;;16.80;;
151;SDS011;68;48.792;9.164;2023-08-20T00:18:04;34.03;;;17.67;;
151;SDS011;68;48.792;9.164;2023-08-20T00:20:31;40.23;;;17.70;;
151;SDS011;68;48.792;9.164;2023-08-20T00:22:59;31.87;;;15.87;;
151;SDS011;68;48.792;9.164;2023-08-20T00:25:27;32.50;;;17.00;;
151;SDS011;68;48.792;9.164;2023-08-20T00:27:54;37.80;;;17.00;;
151;SDS011;68;48.792;9.164;2023-08-20T00:30:22;36.53;;;17.37;;
151;SDS011;68;48.792;9.164;2023-08-20T00:32:49;43.13;;;16.60;;
151;SDS011;68;48.792;9.164;2023-08-20T00:35:16;34.53;;;16.10;;
151;SDS011;68;48.792;9.164;2023-08-20T00:37:43;36.83;;;15.43;;
151;SDS011;68;48.792;9.164;2023-08-20T00:40:10;31.63;;;15.70;;
151;SDS011;68;48.792;9.164;2023-08-20T00:42:37;36.00;;;15.63;;
151;SDS011;68;48.792;9.164;2023-08-20T00:45:04;32.30;;;16.23;;
151;SDS011;68;48.792;9.164;2023-08-20T00:47:33;32.87;;;16.90;;
151;SDS011;68;48.792;9.164;2023-08-20T00:50:01;40.43;;;16.67;;
151;SDS011;68;48.792;9.164;2023-08-20T00:52:30;32.67;;;15.83;;
151;SDS011;68;48.792;9.164;2023-08-20T00:54:57;35.30;;;17.77;;
151;SDS011;68;48.792;9.164;2023-08-20T00:57:24;32.80;;;16.00;;
151;SDS011;68;48.792;9.164;2023-08-20T00:59:52;39.40;;;16.80;;
151;SDS011;68;48.792;9.164;2023-08-20T01:02:21;36.77;;;18.80;;
151;SDS011;68;48.792;9.164;2023-08-20T01:04:50;36.43;;;17.50;;
151;SDS011;68;48.792;9.164;2023-08-20T01:07:18;33.67;;;17.17;;
151;SDS011;68;48.792;9.164;2023-08-20T01:09:55;33.30;;;17.13;;
151;SDS011;68;48.792;9.164;2023-08-20T01:12:28;34.17;;;17.33;;
151;SDS011;68;48.792;9.164;2023-08-20T01:14:55;37.47;;;18.00;;
151;SDS011;68;48.792;9.164;2023-08-20T01:17:22;33.10;;;17.17;;
151;SDS011;68;48.792;9.164;2023-08-20T01:19:50;38.93;;;18.10;;
151;SDS011;68;48.792;9.164;2023-08-20T01:22:21;38.53;;;18.30;;
151;SDS011;68;48.792;9.164;2023-08-20T01:25:17;35.73;;;17.43;;
151;SDS011;68;48.792;9.164;2023-08-20T01:27:57;37.10;;;17.90;;
151;SDS011;68;48.792;9.164;2023-08-20T01:30:31;35.53;;;20.00;;
151;SDS011;68;48.792;9.164;2023-08-20T01:32:58;41.27;;;19.33;;
151;SDS011;68;48.792;9.164;2023-08-20T01:35:25;36.27;;;18.77;;
151;SDS011;68;48.792;9.164;2023-08-20T01:37:52;32.57;;;17.10;;
151;SDS011;68;48.792;9.164;2023-08-20T01:40:19;35.33;;;17.00;;
151;SDS011;68;48.792;9.164;2023-08-20T01:42:46;33.53;;;17.67;;
151;SDS011;68;48.792;9.164;2023-08-20T01:45:13;35.37;;;17.50;;
151;SDS011;68;48.792;9.164;2023-08-20T01:47:41;34.57;;;18.43;;
151;SDS011;68;48.792;9.164;2023-08-20T01:50:08;34.20;;;17.70;;
151;SDS011;68;48.792;9.164;2023-08-20T01:52:36;36.30;;;18.27;;
151;SDS011;68;48.792;9.164;2023-08-20T01:55:03;37.37;;;18.40;;
151;SDS011;68;48.792;9.164;2023-08-20T01:57:30;34.30;;;18.93;;
151;SDS011;68;48.792;9.164;2023-08-20T01:59:57;35.20;;;18.13;;
151;SDS011;68;48.792;9.164;2023-08-20T02:02:24;33.07;;;16.83;;
151;SDS011;68;48.792;9.164;2023-08-20T02:04:52;35.63;;;19.00;;
151;SDS011;68;48.792;9.164;2023-08-20T02:07:19;32.17;;;18.07;;
151;SDS011;68;48.792;9.164;2023-08-20T02:09:46;35.77;;;18.70;;
151;SDS011;68;48.792;9.164;2023-08-20T02:12:13;36.73;;;18.33;;
151;SDS011;68;48.792;9.164;2023-08-20T02:14:40;33.47;;;18.90;;
151;SDS011;68;48.792;9.164;2023-08-20T02:17:07;36.77;;;19.10;;
151;SDS011;68;48.792;9.164;2023-08-20T02:19:34;35.50;;;18.70;;
151;SDS011;68;48.792;9.164;2023-08-20T02:22:02;33.07;;;19.03;;
151;SDS011;68;48.792;9.164;2023-08-20T02:24:29;34.50;;;18.77;;
151;SDS011;68;48.792;9.164;2023-08-20T02:26:56;39.77;;;20.90;;
151;SDS011;68;48.792;9.164;2023-08-20T02:29:23;37.80;;;19.27;;
151;SDS011;68;48.792;9.164;2023-08-20T02:31:49;39.10;;;19.07;;
151;SDS011;68;48.792;9.164;2023-08-20T02:34:16;34.57;;;18.47;;
151;SDS011;68;48.792;9.164;2023-08-20T02:36:43;35.33;;;17.77;;
151;SDS011;68;48.792;9.164;2023-08-20T02:39:11;36.93;;;18.80;;
151;SDS011;68;48.792;9.164;2023-08-20T02:41:39;34.73;;;19.77;;
151;SDS011;68;48.792;9.164;2023-08-20T02:44:06;33.80;;;18.47;;
151;SDS011;68;48.792;9.164;2023-08-20T02:46:33;41.73;;;19.00;;
151;SDS011;68;48.792;9.164;2023-08-20T02:49:00;35.77;;;21.83;;
151;SDS011;68;48.792;9.164;2023-08-20T02:51:26;39.70;;;20.67;;
151;SDS011;68;48.792;9.164;2023-08-20T02:53:53;36.20;;;20.60;;
151;SDS011;68;48.792;9.164;2023-08-20T02:56:21;43.30;;;21.93;;
151;SDS011;68;48.792;9.164;2023-08-20T02:58:48;40.97;;;20.70;;
151;SDS011;68;48.792;9.164;2023-08-20T03:01:19;36.03;;;19.90;;
151;SDS011;68;48.792;9.164;2023-08-20T03:03:47;39.77;;;20.37;;
151;SDS011;68;48.792;9.164;2023-08-20T03:06:14;38.50;;;20.80;;
151;SDS011;68;48.792;9.164;2023-08-20T03:08:41;37.70;;;18.70;;
151;SDS011;68;48.792;9.164;2023-08-20T03:11:08;38.37;;;20.80;;
151;SDS011;68;48.792;9.164;2023-08-20T03:13:36;36.00;;;20.37;;
151;SDS011;68;48.792;9.164;2023-08-20T03:16:03;35.03;;;17.97;;
151;SDS011;68;48.792;9.164;2023-08-20T03:18:30;35.63;;;19.80;;
151;SDS011;68;48.792;9.164;2023-08-20T03:20:57;38.60;;;21.40;;
151;SDS011;68;48.792;9.164;2023-08-20T03:23:24;40.23;;;20.73;;
151;SDS011;68;48.792;9.164;2023-08-20T03:25:50;38.13;;;19.50;;
151;SDS011;68;48.792;9.164;2023-08-20T03:28:17;34.77;;;20.40;;
151;SDS011;68;48.792;9.164;2023-08-20T03:30:46;41.20;;;21.00;;
151;SDS011;68;48.792;9.164;2023-08-20T03:33:13;38.23;;;21.07;;
151;SDS011;68;48.792;9.164;2023-08-20T03:35:40;41.00;;;22.57;;
151;SDS011;68;48.792;9.164;2023-08-20T03:38:06;43.07;;;21.83;;
151;SDS011;68;48.792;9.164;2023-08-20T03:40:33;40.00;;;22.40;;
151;SDS011;68;48.792;9.164;2023-08-20T03:43:00;37.40;;;20.30;;
151;SDS011;68;48.792;9.164;2023-08-20T03:45:27;36.77;;;20.60;;
151;SDS011;68;48.792;9.164;2023-08-20T03:47:57;37.70;;;21.10;;
151;SDS011;68;48.792;9.164;2023-08-20T03:50:23;41.13;;;21.63;;
151;SDS011;68;48.792;9.164;2023-08-20T03:52:50;39.07;;;22.20;;
151;SDS011;68;48.792;9.164;2023-08-20T03:55:17;39.70;;;21.33;;
151;SDS011;68;48.792;9.164;2023-08-20T03:57:44;39.23;;;22.30;;
151;SDS011;68;48.792;9.164;2023-08-20T04:00:11;40.10;;;21.60;;
151;SDS011;68;48.792;9.164;2023-08-20T04:02:38;39.47;;;20.77;;
151;SDS011;68;48.792;9.164;2023-08-20T04:05:07;41.73;;;22.03;;
151;SDS011;68;48.792;9.164;2023-08-20T04:07:33;38.43;;;22.77;;
151;SDS011;68;48.792;9.164;2023-08-20T04:10:01;41.17;;;21.67;;
151;SDS011;68;48.792;9.164;2023-08-20T04:12:28;39.90;;;22.10;;
151;SDS011;68;48.792;9.164;2023-08-20T04:14:55;38.10;;;22.40;;
151;SDS011;68;48.792;9.164;2023-08-20T04:17:21;37.30;;;21.80;;
151;SDS011;68;48.792;9.164;2023-08-20T04:19:48;42.43;;;21.57;;
151;SDS011;68;48.792;9.164;2023-08-20T04:22:16;39.70;;;21.40;;
151;SDS011;68;48.792;9.164;2023-08-20T04:24:43;36.43;;;20.83;;
151;SDS011;68;48.792;9.164;2023-08-20T04:27:10;38.50;;;21.67;;
151;SDS011;68;48.792;9.164;2023-08-20T04:29:36;38.17;;;22.00;;
151;SDS011;68;48.792;9.164;2023-08-20T04:32:03;38.83;;;23.37;;
151;SDS011;68;48.792;9.164;2023-08-20T04:34:31;41.67;;;21.57;;
151;SDS011;68;48.792;9.164;2023-08-20T04:36:58;39.40;;;22.03;;
151;SDS011;68;48.792;9.164;2023-08-20T04:39:26;43.90;;;22.67;;
151;SDS011;68;48.792;9.164;2023-08-20T04:41:53;53.50;;;22.70;;
151;SDS011;68;48.792;9.164;2023-08-20T04:44:22;40.03;;;23.50;;
151;SDS011;68;48.792;9.164;2023-08-20T04:46:49;43.00;;;23.50;;
151;SDS011;68;48.792;9.164;2023-08-20T04:49:15;36.03;;;21.20;;
151;SDS011;68;48.792;9.164;2023-08-20T04:51:42;35.00;;;20.20;;
151;SDS011;68;48.792;9.164;2023-08-20T04:54:09;37.30;;;20.33;;
151;SDS011;68;48.792;9.164;2023-08-20T04:56:37;40.93;;;21.53;;
151;SDS011;68;48.792;9.164;2023-08-20T04:59:04;39.07;;;21.70;;
151;SDS011;68;48.792;9.164;2023-08-20T05:01:30;38.90;;;22.43;;
151;SDS011;68;48.792;9.164;2023-08-20T05:03:57;44.87;;;22.20;;
151;SDS011;68;48.792;9.164;2023-08-20T05:06:25;39.57;;;20.90;;
151;SDS011;68;48.792;9.164;2023-08-20T05:08:52;41.00;;;22.10;;
151;SDS011;68;48.792;9.164;2023-08-20T05:11:18;40.57;;;21.90;;
151;SDS011;68;48.792;9.164;2023-08-20T05:13:46;37.43;;;20.90;;
151;SDS011;68;48.792;9.164;2023-08-20T05:16:13;50.23;;;21.10;;
151;SDS011;68;48.792;9.164;2023-08-20T05:18:40;35.77;;;20.17;;
151;SDS011;68;48.792;9.164;2023-08-20T05:21:08;39.87;;;22.40;;
151;SDS011;68;48.792;9.164;2023-08-20T05:23:36;43.30;;;22.50;;
151;SDS011;68;48.792;9.164;2023-08-20T05:26:03;38.03;;;21.27;;
151;SDS011;68;48.792;9.164;2023-08-20T05:28:30;41.13;;;23.07;;
151;SDS011;68;48.792;9.164;2023-08-20T05:30:58;48.33;;;23.60;;
151;SDS011;68;48.792;9.164;2023-08-20T05:33:25;43.63;;;24.67;;
151;SDS011;68;48.792;9.164;2023-08-20T05:35:52;43.30;;;23.37;;
151;SDS011;68;48.792;9.164;2023-08-20T05:38:19;47.77;;;23.50;;
151;SDS011;68;48.792;9.164;2023-08-20T05:40:46;42.00;;;22.60;;
151;SDS011;68;48.792;9.164;2023-08-20T05:43:13;39.17;;;22.30;;
151;SDS011;68;48.792;9.164;2023-08-20T05:45:39;41.40;;;22.77;;
151;SDS011;68;48.792;9.164;2023-08-20T05:48:07;44.87;;;22.30;;
151;SDS011;68;48.792;9.164;2023-08-20T05:50:34;38.60;;;23.33;;
151;SDS011;68;48.792;9.164;2023-08-20T05:53:01;39.47;;;20.03;;
151;SDS011;68;48.792;9.164;2023-08-20T05:55:28;37.97;;;20.83;;
151;SDS011;68;48.792;9.164;2023-08-20T05:57:54;39.97;;;22.50;;
151;SDS011;68;48.792;9.164;2023-08-20T06:00:22;37.77;;;21.80;;
151;SDS011;68;48.792;9.164;2023-08-20T06:02:48;41.60;;;21.33;;
151;SDS011;68;48.792;9.164;2023-08-20T06:05:17;39.13;;;21.07;;
151;SDS011;68;48.792;9.164;2023-08-20T06:07:44;43.37;;;21.93;;
151;SDS011;68;48.792;9.164;2023-08-20T06:10:10;40.03;;;22.37;;
151;SDS011;68;48.792;9.164;2023-08-20T06:12:37;39.23;;;22.07;;
151;SDS011;68;48.792;9.164;2023-08-20T06:15:05;34.80;;;20.00;;
151;SDS011;68;48.792;9.164;2023-08-20T06:17:32;37.10;;;19.83;;
151;SDS011;68;48.792;9.164;2023-08-20T06:19:59;37.07;;;19.50;;
151;SDS011;68;48.792;9.164;2023-08-20T06:22:27;36.67;;;19.13;;
151;SDS011;68;48.792;9.164;2023-08-20T06:24:54;37.57;;;19.90;;
151;SDS011;68;48.792;9.164;2023-08-20T06:27:20;36.13;;;19.27;;
151;SDS011;68;48.792;9.164;2023-08-20T06:29:47;37.00;;;19.17;;
151;SDS011;68;48.792;9.164;2023-08-20T06:32:14;34.00;;;17.60;;
151;SDS011;68;48.792;9.164;2023-08-20T06:34:41;39.30;;;17.93;;
151;SDS011;68;48.792;9.164;2023-08-20T06:37:08;36.10;;;18.57;;
151;SDS011;68;48.792;9.164;2023-08-20T06:39:36;42.93;;;18.80;;
151;SDS011;68;48.792;9.164;2023-08-20T06:42:03;37.07;;;18.83;;
151;SDS011;68;48.792;9.164;2023-08-20T06:44:29;34.83;;;18.67;;
151;SDS011;68;48.792;9.164;2023-08-20T06:46:56;35.40;;;18.40;;
151;SDS011;68;48.792;9.164;2023-08-20T06:49:23;34.83;;;18.33;;
151;SDS011;68;48.792;9.164;2023-08-20T06:51:50;35.50;;;18.50;;
151;SDS011;68;48.792;9.164;2023-08-20T06:54:16;36.37;;;18.70;;
151;SDS011;68;48.792;9.164;2023-08-20T06:56:45;36.57;;;18.60;;
151;SDS011;68;48.792;9.164;2023-08-20T06:59:11;38.57;;;19.73;;
151;SDS011;68;48.792;9.164;2023-08-20T07:01:38;40.90;;;18.87;;
151;SDS011;68;48.792;9.164;2023-08-20T07:04:05;38.60;;;18.50;;
151;SDS011;68;48.792;9.164;2023-08-20T07:06:32;38.70;;;17.60;;
151;SDS011;68;48.792;9.164;2023-08-20T07:08:59;39.77;;;19.80;;
151;SDS011;68;48.792;9.164;2023-08-20T07:11:25;35.37;;;18.47;;
151;SDS011;68;48.792;9.164;2023-08-20T07:13:54;42.23;;;17.37;;
151;SDS011;68;48.792;9.164;2023-08-20T07:16:20;36.07;;;17.97;;
151;SDS011;68;48.792;9.164;2023-08-20T07:18:47;38.23;;;17.87;;
151;SDS011;68;48.792;9.164;2023-08-20T07:21:14;35.57;;;18.57;;
151;SDS011;68;48.792;9.164;2023-08-20T07:23:41;34.80;;;17.70;;
151;SDS011;68;48.792;9.164;2023-08-20T07:26:08;34.50;;;18.50;;
151;SDS011;68;48.792;9.164;2023-08-20T07:28:37;39.87;;;18.70;;
151;SDS011;68;48.792;9.164;2023-08-20T07:31:19;34.53;;;17.10;;
151;SDS011;68;48.792;9.164;2023-08-20T07:33:46;39.53;;;17.60;;
151;SDS011;68;48.792;9.164;2023-08-20T07:36:13;41.17;;;18.63;;
151;SDS011;68;48.792;9.164;2023-08-20T07:38:40;39.93;;;18.60;;
151;SDS011;68;48.792;9.164;2023-08-20T07:41:09;34.93;;;18.13;;
151;SDS011;68;48.792;9.164;2023-08-20T07:43:36;35.50;;;17.83;;
151;SDS011;68;48.792;9.164;2023-08-20T07:46:04;39.13;;;17.00;;
151;SDS011;68;48.792;9.164;2023-08-20T07:48:32;33.97;;;17.40;;
151;SDS011;68;48.792;9.164;2023-08-20T07:50:59;39.20;;;17.30;;
151;SDS011;68;48.792;9.164;2023-08-20T07:53:26;37.50;;;18.33;;
151;SDS011;68;48.792;9.164;2023-08-20T07:55:53;32.53;;;16.70;;
151;SDS011;68;48.792;9.164;2023-08-20T07:58:19;37.83;;;17.83;;
151;SDS011;68;48.792;9.164;2023-08-20T08:00:46;34.97;;;17.47;;
151;SDS011;68;48.792;9.164;2023-08-20T08:03:13;38.83;;;17.57;;
151;SDS011;68;48.792;9.164;2023-08-20T08:05:43;39.27;;;18.47;;
151;SDS011;68;48.792;9.164;2023-08-20T09:51:15;32.57;;;14.80;;
151;SDS011;68;48.792;9.164;2023-08-20T09:53:48;34.77;;;14.60;;
151;SDS011;68;48.792;9.164;2023-08-20T09:56:22;33.73;;;15.20;;
151;SDS011;68;48.792;9.164;2023-08-20T09:58:53;36.37;;;14.93;;
151;SDS011;68;48.792;9.164;2023-08-20T10:01:21;34.10;;;14.83;;
151;SDS011;68;48.792;9.164;2023-08-20T10:03:49;33.23;;;14.03;;
151;SDS011;68;48.792;9.164;2023-08-20T10:06:17;40.10;;;14.57;;
151;SDS011;68;48.792;9.164;2023-08-20T10:08:45;29.70;;;13.00;;
151;SDS011;68;48.792;9.164;2023-08-20T10:11:14;31.53;;;13.77;;
151;SDS011;68;48.792;9.164;2023-08-20T10:13:41;30.20;;;12.60;;
151;SDS011;68;48.792;9.164;2023-08-20T10:16:08;38.93;;;13.77;;
151;SDS011;68;48.792;9.164;2023-08-20T10:18:37;36.80;;;13.60;;
151;SDS011;68;48.792;9.164;2023-08-20T10:21:04;43.50;;;14.97;;
151;SDS011;68;48.792;9.164;2023-08-20T10:23:34;33.03;;;13.60;;
151;SDS011;68;48.792;9.164;2023-08-20T10:26:08;32.93;;;12.90;;
151;SDS011;68;48.792;9.164;2023-08-20T10:28:35;30.37;;;12.10;;
151;SDS011;68;48.792;9.164;2023-08-20T10:31:03;34.20;;;12.83;;
151;SDS011;68;48.792;9.164;2023-08-20T10:33:33;28.40;;;11.73;;
151;SDS011;68;48.792;9.164;2023-08-20T10:36:06;38.70;;;13.30;;
151;SDS011;68;48.792;9.164;2023-08-20T10:38:36;32.33;;;12.50;;
151;SDS011;68;48.792;9.164;2023-08-20T10:41:05;31.30;;;12.27;;
151;SDS011;68;48.792;9.164;2023-08-20T10:43:34;29.53;;;11.90;;
151;SDS011;68;48.792;9.164;2023-08-20T10:46:06;29.83;;;11.50;;
151;SDS011;68;48.792;9.164;2023-08-20T10:48:35;27.93;;;11.33;;
151;SDS011;68;48.792;9.164;2023-08-20T10:51:06;34.30;;;11.73;;
151;SDS011;68;48.792;9.164;2023-08-20T10:53:34;27.77;;;11.17;;
151;SDS011;68;48.792;9.164;2023-08-20T10:56:09;28.13;;;11.20;;
151;SDS011;68;48.792;9.164;2023-08-20T10:58:38;33.10;;;12.50;;
151;SDS011;68;48.792;9.164;2023-08-20T11:01:18;35.53;;;13.27;;
151;SDS011;68;48.792;9.164;2023-08-20T11:03:46;33.40;;;13.47;;
151;SDS011;68;48.792;9.164;2023-08-20T11:06:14;41.57;;;17.37;;
151;SDS011;68;48.792;9.164;2023-08-20T11:08:43;33.97;;;13.03;;
151;SDS011;68;48.792;9.164;2023-08-20T11:11:11;32.30;;;12.30;;
151;SDS011;68;48.792;9.164;2023-08-20T11:13:38;33.53;;;11.70;;
151;SDS011;68;48.792;9.164;2023-08-20T11:16:05;33.97;;;13.63;;
151;SDS011;68;48.792;9.164;2023-08-20T11:18:33;34.40;;;12.60;;
151;SDS011;68;48.792;9.164;2023-08-20T11:21:01;31.40;;;12.10;;
151;SDS011;68;48.792;9.164;2023-08-20T11:23:29;30.10;;;12.37;;
151;SDS011;68;48.792;9.164;2023-08-20T11:25:57;38.77;;;12.20;;
151;SDS011;68;48.792;9.164;2023-08-20T11:28:25;28.60;;;11.77;;
151;SDS011;68;48.792;9.164;2023-08-20T11:30:52;37.20;;;12.20;;
151;SDS011;68;48.792;9.164;2023-08-20T11:33:20;29.47;;;12.00;;
151;SDS011;68;48.792;9.164;2023-08-20T11:35:48;30.63;;;11.50;;
151;SDS011;68;48.792;9.164;2023-08-20T11:38:14;30.70;;;11.63;;
151;SDS011;68;48.792;9.164;2023-08-20T11:40:41;28.43;;;11.47;;
151;SDS011;68;48.792;9.164;2023-08-20T11:43:09;28.60;;;11.33;;
151;SDS011;68;48.792;9.164;2023-08-20T11:45:44;30.97;;;11.80;;
151;SDS011;68;48.792;9.164;2023-08-20T11:48:12;35.07;;;11.83;;
151;SDS011;68;48.792;9.164;2023-08-20T11:50:39;29.33;;;11.40;;
151;SDS011;68;48.792;9.164;2023-08-20T11:53:06;29.07;;;11.70;;
151;SDS011;68;48.792;9.164;2023-08-20T11:55:33;29.70;;;11.13;;
151;SDS011;68;48.792;9.164;2023-08-20T11:58:00;32.80;;;12.30;;
151;SDS011;68;48.792;9.164;2023-08-20T12:00:29;33.90;;;11.80;;
151;SDS011;68;48.792;9.164;2023-08-20T12:02:57;38.33;;;11.63;;
151;SDS011;68;48.792;9.164;2023-08-20T12:05:26;34.07;;;11.10;;
151;SDS011;68;48.792;9.164;2023-08-20T12:07:56;30.00;;;10.87;;
151;SDS011;68;48.792;9.164;2023-08-20T12:10:25;34.67;;;11.47;;
151;SDS011;68;48.792;9.164;2023-08-20T12:12:53;26.80;;;10.30;;
151;SDS011;68;48.792;9.164;2023-08-20T12:15:20;28.27;;;11.57;;
151;SDS011;68;48.792;9.164;2023-08-20T12:17:59;35.60;;;11.47;;
151;SDS011;68;48.792;9.164;2023-08-20T12:20:30;28.90;;;10.77;;
151;SDS011;68;48.792;9.164;2023-08-20T12:23:01;33.00;;;11.53;;
151;SDS011;68;48.792;9.164;2023-08-20T12:25:30;38.97;;;11.53;;
151;SDS011;68;48.792;9.164;2023-08-20T12:27:58;33.43;;;11.67;;
151;SDS011;68;48.792;9.164;2023-08-20T12:30:25;30.33;;;11.27;;
151;SDS011;68;48.792;9.164;2023-08-20T12:32:53;30.00;;;10.90;;
151;SDS011;68;48.792;9.164;2023-08-20T12:35:21;30.87;;;10.63;;
151;SDS011;68;48.792;9.164;2023-08-20T12:37:48;29.70;;;11.30;;
151;SDS011;68;48.792;9.164;2023-08-20T12:40:15;33.30;;;10.70;;
151;SDS011;68;48.792;9.164;2023-08-20T12:42:42;25.80;;;10.17;;
151;SDS011;68;48.792;9.164;2023-08-20T12:45:10;30.73;;;10.93;;
151;SDS011;68;48.792;9.164;2023-08-20T12:47:38;29.37;;;10.73;;
151;SDS011;68;48.792;9.164;2023-08-20T12:50:05;33.83;;;10.80;;
151;SDS011;68;48.792;9.164;2023-08-20T12:52:34;35.17;;;10.40;;
151;SDS011;68;48.792;9.164;2023-08-20T12:55:01;30.57;;;10.53;;
151;SDS011;68;48.792;9.164;2023-08-20T12:57:28;29.37;;;10.40;;
151;SDS011;68;48.792;9.164;2023-08-20T12:59:55;33.97;;;10.63;;
151;SDS011;68;48.792;9.164;2023-08-20T13:02:22;29.63;;;9.80;;
151;SDS011;68;48.792;9.164;2023-08-20T13:04:49;29.60;;;10.00;;
151;SDS011;68;48.792;9.164;2023-08-20T13:07:17;29.23;;;10.20;;
151;SDS011;68;48.792;9.164;2023-08-20T13:09:45;28.07;;;10.60;;
151;SDS011;68;48.792;9.164;2023-08-20T13:12:13;29.80;;;10.40;;
151;SDS011;68;48.792;9.164;2023-08-20T13:14:40;26.63;;;10.13;;
151;SDS011;68;48.792;9.164;2023-08-20T13:17:08;31.23;;;10.00;;
151;SDS011;68;48.792;9.164;2023-08-20T13:19:35;29.00;;;10.70;;
151;SDS011;68;48.792;9.164;2023-08-20T13:22:02;29.17;;;10.20;;
151;SDS011;68;48.792;9.164;2023-08-20T13:24:29;27.33;;;10.60;;
151;SDS011;68;48.792;9.164;2023-08-20T13:26:57;33.30;;;10.73;;
151;SDS011;68;48.792;9.164;2023-08-20T13:29:24;29.53;;;10.07;;
151;SDS011;68;48.792;9.164;2023-08-20T13:31:51;31.03;;;10.33;;
151;SDS011;68;48.792;9.164;2023-08-20T13:34:18;29.10;;;9.83;;
151;SDS011;68;48.792;9.164;2023-08-20T13:36:44;32.90;;;9.90;;
151;SDS011;68;48.792;9.164;2023-08-20T13:39:12;28.03;;;10.10;;
151;SDS011;68;48.792;9.164;2023-08-20T13:41:39;31.90;;;11.47;;
151;SDS011;68;48.792;9.164;2023-08-20T13:44:07;29.87;;;9.83;;
151;SDS011;68;48.792;9.164;2023-08-20T13:46:34;28.07;;;10.20;;
151;SDS011;68;48.792;9.164;2023-08-20T13:49:01;28.10;;;10.60;;
151;SDS011;68;48.792;9.164;2023-08-20T13:51:28;32.70;;;11.30;;
151;SDS011;68;48.792;9.164;2023-08-20T13:53:55;28.87;;;10.60;;
151;SDS011;68;48.792;9.164;2023-08-20T13:56:23;29.63;;;10.50;;
151;SDS011;68;48.792;9.164;2023-08-20T13:58:50;27.60;;;10.00;;
151;SDS011;68;48.792;9.164;2023-08-20T14:01:18;28.50;;;10.90;;
151;SDS011;68;48.792;9.164;2023-08-20T14:03:46;29.23;;;10.70;;
151;SDS011;68;48.792;9.164;2023-08-20T14:06:14;30.60;;;10.47;;
151;SDS011;68;48.792;9.164;2023-08-20T14:08:41;33.57;;;11.07;;
151;SDS011;68;48.792;9.164;2023-08-20T14:11:08;29.20;;;11.07;;
151;SDS011;68;48.792;9.164;2023-08-20T14:13:35;31.87;;;10.77;;
151;SDS011;68;48.792;9.164;2023-08-20T14:16:03;30.67;;;10.70;;
151;SDS011;68;48.792;9.164;2023-08-20T14:18:31;34.27;;;10.30;;
151;SDS011;68;48.792;9.164;2023-08-20T14:20:57;30.60;;;10.33;;
151;SDS011;68;48.792;9.164;2023-08-20T14:23:24;31.23;;;10.40;;
151;SDS011;68;48.792;9.164;2023-08-20T14:25:51;32.53;;;12.10;;
151;SDS011;68;48.792;9.164;2023-08-20T14:28:19;27.47;;;9.53;;
151;SDS011;68;48.792;9.164;2023-08-20T14:30:46;27.03;;;10.60;;
151;SDS011;68;48.792;9.164;2023-08-20T14:33:14;27.97;;;10.20;;
151;SDS011;68;48.792;9.164;2023-08-20T14:35:42;29.40;;;10.97;;
151;SDS011;68;48.792;9.164;2023-08-20T14:38:09;28.40;;;10.47;;
151;SDS011;68;48.792;9.164;2023-08-20T14:40:37;29.87;;;11.33;;
151;SDS011;68;48.792;9.164;2023-08-20T14:43:04;33.13;;;10.60;;
151;SDS011;68;48.792;9.164;2023-08-20T14:45:31;36.00;;;10.50;;
151;SDS011;68;48.792;9.164;2023-08-20T14:47:58;27.10;;;10.10;;
151;SDS011;68;48.792;9.164;2023-08-20T14:50:25;28.20;;;10.30;;
151;SDS011;68;48.792;9.164;2023-08-20T14:52:53;30.30;;;9.67;;
151;SDS011;68;48.792;9.164;2023-08-20T14:55:20;28.13;;;10.10;;
151;SDS011;68;48.792;9.164;2023-08-20T14:57:47;31.63;;;9.60;;
151;SDS011;68;48.792;9.164;2023-08-20T15:00:14;38.10;;;9.97;;
151;SDS011;68;48.792;9.164;2023-08-20T15:02:42;33.93;;;9.43;;
151;SDS011;68;48.792;9.164;2023-08-20T15:05:09;32.10;;;9.03;;
151;SDS011;68;48.792;9.164;2023-08-20T15:07:37;29.00;;;9.00;;
151;SDS011;68;48.792;9.164;2023-08-20T15:10:06;27.57;;;9.67;;
151;SDS011;68;48.792;9.164;2023-08-20T15:12:34;27.70;;;9.60;;
151;SDS011;68;48.792;9.164;2023-08-20T15:15:01;27.57;;;8.83;;
151;SDS011;68;48.792;9.164;2023-08-20T15:17:29;32.63;;;9.30;;
151;SDS011;68;48.792;9.164;2023-08-20T15:19:56;26.33;;;8.87;;
151;SDS011;68;48.792;9.164;2023-08-20T15:22:23;28.03;;;8.90;;
151;SDS011;68;48.792;9.164;2023-08-20T15:24:50;23.77;;;8.00;;
151;SDS011;68;48.792;9.164;2023-08-20T15:27:19;27.27;;;9.27;;
151;SDS011;68;48.792;9.164;2023-08-20T15:29:46;27.53;;;9.70;;
151;SDS011;68;48.792;9.164;2023-08-20T15:32:13;27.90;;;9.50;;
151;SDS011;68;48.792;9.164;2023-08-20T15:34:40;32.07;;;8.70;;
151;SDS011;68;48.792;9.164;2023-08-20T15:37:07;32.53;;;9.10;;
151;SDS011;68;48.792;9.164;2023-08-20T15:39:34;27.03;;;8.77;;
151;SDS011;68;48.792;9.164;2023-08-20T15:42:00;28.83;;;8.80;;
151;SDS011;68;48.792;9.164;2023-08-20T15:44:29;26.93;;;8.20;;
151;SDS011;68;48.792;9.164;2023-08-20T15:46:56;33.80;;;9.13;;
151;SDS011;68;48.792;9.164;2023-08-20T15:49:22;30.73;;;9.83;;
151;SDS011;68;48.792;9.164;2023-08-20T15:51:49;25.60;;;8.83;;
151;SDS011;68;48.792;9.164;2023-08-20T15:54:16;28.50;;;8.90;;
151;SDS011;68;48.792;9.164;2023-08-20T15:56:44;28.27;;;9.33;;
151;SDS011;68;48.792;9.164;2023-08-20T15:59:11;26.77;;;8.70;;
151;SDS011;68;48.792;9.164;2023-08-20T16:01:39;26.47;;;9.10;;
151;SDS011;68;48.792;9.164;2023-08-20T16:04:06;30.70;;;8.60;;
151;SDS011;68;48.792;9.164;2023-08-20T16:06:33;27.37;;;9.33;;
151;SDS011;68;48.792;9.164;2023-08-20T16:09:00;26.30;;;8.50;;
151;SDS011;68;48.792;9.164;2023-08-20T16:11:28;27.30;;;9.13;;
151;SDS011;68;48.792;9.164;2023-08-20T16:13:54;24.80;;;8.83;;
151;SDS011;68;48.792;9.164;2023-08-20T16:16:21;26.03;;;9.20;;
151;SDS011;68;48.792;9.164;2023-08-20T16:18:51;26.00;;;8.40;;
151;SDS011;68;48.792;9.164;2023-08-20T16:21:17;30.50;;;8.47;;
151;SDS011;68;48.792;9.164;2023-08-20T16:23:44;26.70;;;9.10;;
151;SDS011;68;48.792;9.164;2023-08-20T16:26:11;30.30;;;8.77;;
151;SDS011;68;48.792;9.164;2023-08-20T16:28:39;33.43;;;9.00;;
151;SDS011;68;48.792;9.164;2023-08-20T16:31:07;29.10;;;8.53;;
151;SDS011;68;48.792;9.164;2023-08-20T16:33:34;27.47;;;8.73;;
151;SDS011;68;48.792;9.164;2023-08-20T16:36:02;27.10;;;8.67;;
151;SDS011;68;48.792;9.164;2023-08-20T16:38:29;28.33;;;8.67;;
151;SDS011;68;48.792;9.164;2023-08-20T16:40:58;26.60;;;8.80;;
151;SDS011;68;48.792;9.164;2023-08-20T16:43:27;27.83;;;9.47;;
151;SDS011;68;48.792;9.164;2023-08-20T16:45:54;27.87;;;9.80;;
151;SDS011;68;48.792;9.164;2023-08-20T16:48:22;28.77;;;8.20;;
151;SDS011;68;48.792;9.164;2023-08-20T16:50:49;33.43;;;8.90;;
151;SDS011;68;48.792;9.164;2023-08-20T16:53:17;27.10;;;8.73;;
151;SDS011;68;48.792;9.164;2023-08-20T16:55:49;29.27;;;9.03;;
151;SDS011;68;48.792;9.164;2023-08-20T16:58:16;30.23;;;9.80;;
151;SDS011;68;48.792;9.164;2023-08-20T17:00:43;31.23;;;9.10;;
151;SDS011;68;48.792;9.164;2023-08-20T17:03:10;29.43;;;9.20;;
151;SDS011;68;48.792;9.164;2023-08-20T17:05:36;30.47;;;8.80;;
151;SDS011;68;48.792;9.164;2023-08-20T17:08:03;31.53;;;9.90;;
151;SDS011;68;48.792;9.164;2023-08-20T17:10:32;28.43;;;9.80;;
151;SDS011;68;48.792;9.164;2023-08-20T17:12:59;25.33;;;8.23;;
151;SDS011;68;48.792;9.164;2023-08-20T17:15:26;28.67;;;9.07;;
151;SDS011;68;48.792;9.164;2023-08-20T17:17:53;37.00;;;8.53;;